Time;durP1;ratioP1;P1;durP2;ratioP2;P2;SDS_P1;SDS_P2;PMS_P1;PMS_P2;Temp;Humidity;BMP_temperature;BMP_pressure;BME280_temperature;BME280_humidity;BME280_pressure;Samples;Min_cycle;Max_cycle;Signal;HPM_P1;HPM_P2
2021/06/23 00:02:18;;;;;;;;;;;;;;;9.50;100.00;99761.81;5132929;27;19924;-78
2021/06/23 00:04:45;;;;;;;;;;;;;;;9.36;100.00;99777.75;5114896;28;19934;-78
2021/06/23 00:07:12;;;;;;;;;;;;;;;9.52;100.00;99769.78;5133115;27;20370;-78
2021/06/23 00:09:39;;;;;;;;;;;;;;;9.50;100.00;99772.16;5132666;27;20293;-78
2021/06/23 00:12:14;;;;;;;;;;;;;;;9.32;100.00;99761.00;5133055;27;19968;-78
2021/06/23 00:14:43;;;;;;;;;;;;;;;9.21;100.00;99767.78;5133090;27;19923;-77
2021/06/23 00:17:10;;;;;;;;;;;;;;;9.11;100.00;99766.59;5133149;27;19976;-78
2021/06/23 00:19:37;;;;;;;;;;;;;;;9.02;100.00;99780.13;5132674;27;19924;-78
2021/06/23 00:22:05;;;;;;;;;;;;;;;8.87;100.00;99768.16;5132771;27;20071;-78
2021/06/23 00:24:32;;;;;;;;;;;;;;;8.75;100.00;99776.84;5115439;27;20010;-78
2021/06/23 00:26:59;;;;;;;;;;;;;;;8.59;100.00;99773.66;5136660;27;19924;-78
2021/06/23 00:29:26;;;;;;;;;;;;;;;8.46;100.00;99772.41;5136438;27;20014;-78
2021/06/23 00:31:54;;;;;;;;;;;;;;;8.31;100.00;99776.34;5118108;27;19987;-78
2021/06/23 00:34:22;;;;;;;;;;;;;;;8.23;100.00;99762.75;5136429;27;19923;-78
2021/06/23 00:36:50;;;;;;;;;;;;;;;8.10;100.00;99776.22;5136056;27;19930;-78
2021/06/23 00:39:17;;;;;;;;;;;;;;;7.95;100.00;99766.16;5136012;27;19928;-77
2021/06/23 00:41:44;;;;;;;;;;;;;;;7.85;100.00;99769.69;5118103;27;19930;-77
2021/06/23 00:44:14;;;;;;;;;;;;;;;7.75;100.00;99767.66;5136064;27;19923;-78
2021/06/23 00:46:42;;;;;;;;;;;;;;;7.73;100.00;99758.06;5136253;27;20301;-78
2021/06/23 00:49:10;;;;;;;;;;;;;;;7.57;100.00;99766.75;5136002;27;19968;-78
2021/06/23 00:52:07;;;;;;;;;;;;;;;7.44;100.00;99762.66;5117774;27;19934;-77
2021/06/23 00:54:49;;;;;;;;;;;;;;;7.29;100.00;99767.31;5119464;27;19927;-78
2021/06/23 00:57:20;;;;;;;;;;;;;;;7.23;100.00;99759.72;5084304;27;19924;-78
2021/06/23 00:59:49;;;;;;;;;;;;;;;7.39;100.00;99765.81;5135965;27;20471;-78
2021/06/23 01:02:17;;;;;;;;;;;;;;;7.21;100.00;99764.84;5135681;27;19931;-78
2021/06/23 01:04:45;;;;;;;;;;;;;;;7.21;100.00;99764.84;5117886;27;19969;-78
2021/06/23 01:07:15;;;;;;;;;;;;;;;7.06;100.00;99763.13;5117467;27;19959;-78
2021/06/23 01:09:45;;;;;;;;;;;;;;;6.87;100.00;99769.72;5117808;27;20083;-77
2021/06/23 01:12:27;;;;;;;;;;;;;;;6.90;100.00;99773.69;5117353;27;19957;-78
2021/06/23 01:14:59;;;;;;;;;;;;;;;6.60;100.00;99770.22;5117332;27;19930;-77
2021/06/23 01:17:34;;;;;;;;;;;;;;;6.56;100.00;99764.63;5100408;27;19924;-78
2021/06/23 01:20:12;;;;;;;;;;;;;;;6.40;100.00;99768.78;5117193;27;19923;-78
2021/06/23 01:22:40;;;;;;;;;;;;;;;6.47;100.00;99766.09;5117042;27;19923;-78
2021/06/23 01:25:10;;;;;;;;;;;;;;;6.43;100.00;99768.03;5116995;27;19931;-78
2021/06/23 01:27:39;;;;;;;;;;;;;;;6.05;100.00;99768.34;5117070;27;19924;-77
2021/06/23 01:30:08;;;;;;;;;;;;;;;6.19;100.00;99774.91;5135155;27;20012;-78
2021/06/23 01:32:45;;;;;;;;;;;;;;;6.16;100.00;99770.09;5135444;27;19924;-78
2021/06/23 01:35:14;;;;;;;;;;;;;;;6.22;100.00;99773.31;5134375;27;19927;-78
2021/06/23 01:37:43;;;;;;;;;;;;;;;6.18;100.00;99772.50;5116563;27;20597;-77
2021/06/23 01:40:11;;;;;;;;;;;;;;;6.34;100.00;99770.31;5116847;27;19923;-78
2021/06/23 01:42:39;;;;;;;;;;;;;;;6.48;100.00;99764.94;5135202;27;19923;-78
2021/06/23 01:45:06;;;;;;;;;;;;;;;6.48;100.00;99768.47;5135078;27;19927;-78
2021/06/23 01:47:34;;;;;;;;;;;;;;;6.43;100.00;99768.03;5117103;27;19933;-78
2021/06/23 01:50:02;;;;;;;;;;;;;;;6.21;100.00;99763.41;5116644;27;19923;-78
2021/06/23 01:52:37;;;;;;;;;;;;;;;6.33;100.00;99769.50;5116305;27;19959;-78
2021/06/23 01:55:05;;;;;;;;;;;;;;;6.20;100.00;99772.91;5116652;27;19923;-78
2021/06/23 01:57:40;;;;;;;;;;;;;;;6.21;100.00;99766.97;5116406;27;19924;-78
2021/06/23 02:00:09;;;;;;;;;;;;;;;6.11;100.00;99766.84;5134880;27;20293;-78
2021/06/23 02:03:01;;;;;;;;;;;;;;;6.05;100.00;99762.78;5134655;27;19924;-78
2021/06/23 02:05:40;;;;;;;;;;;;;;;5.74;100.00;99768.69;5134473;27;19962;-78
2021/06/23 02:08:14;;;;;;;;;;;;;;;5.83;100.00;99777.56;5116421;27;19924;-78
2021/06/23 02:10:49;;;;;;;;;;;;;;;5.88;100.00;99774.47;5116924;27;19930;-78
2021/06/23 02:13:28;;;;;;;;;;;;;;;5.80;100.00;99775.50;5134737;27;19931;-77
2021/06/23 02:16:17;;;;;;;;;;;;;;;5.78;100.00;99770.34;5116149;27;19934;-78
2021/06/23 02:18:45;;;;;;;;;;;;;;;5.78;100.00;99775.88;5116074;27;19931;-78
2021/06/23 02:21:28;;;;;;;;;;;;;;;5.62;100.00;99766.91;5115633;27;19976;-77
2021/06/23 02:23:55;;;;;;;;;;;;;;;5.63;100.00;99774.84;5134133;27;20189;-78
2021/06/23 02:26:24;;;;;;;;;;;;;;;5.60;100.00;99770.06;5098920;27;19952;-78
2021/06/23 02:28:52;;;;;;;;;;;;;;;5.59;100.00;99768.47;5134597;27;19927;-78
2021/06/23 02:31:20;;;;;;;;;;;;;;;5.67;100.00;99774.13;5099257;27;19923;-78
2021/06/23 02:33:52;;;;;;;;;;;;;;;5.80;100.00;99772.75;5133860;27;20006;-78
2021/06/23 02:36:26;;;;;;;;;;;;;;;5.59;100.00;99768.47;5115958;27;19954;-78
2021/06/23 02:38:53;;;;;;;;;;;;;;;5.56;100.00;99765.63;5115739;27;19930;-78
2021/06/23 02:41:21;;;;;;;;;;;;;;;5.57;100.00;99772.81;5099278;27;20370;-78
2021/06/23 02:43:55;;;;;;;;;;;;;;;5.60;100.00;99767.28;5115882;27;19923;-77
2021/06/23 02:46:31;;;;;;;;;;;;;;;5.63;100.00;99764.97;5099835;27;19924;-78
2021/06/23 02:49:13;;;;;;;;;;;;;;;5.56;100.00;99769.22;5098368;28;19923;-78
2021/06/23 02:51:44;;;;;;;;;;;;;;;5.56;100.00;99766.44;5133915;27;20400;-78
2021/06/23 02:54:12;;;;;;;;;;;;;;;5.66;100.00;99770.56;5133618;27;19927;-78
2021/06/23 02:56:50;;;;;;;;;;;;;;;5.75;100.00;99765.53;5131818;27;20382;-78
2021/06/23 02:59:20;;;;;;;;;;;;;;;5.34;100.00;99763.72;5115311;27;20385;-78
2021/06/23 03:01:49;;;;;;;;;;;;;;;5.51;100.00;99760.44;5133594;27;20282;-78
2021/06/23 03:04:21;;;;;;;;;;;;;;;5.52;100.00;99764.78;5099041;27;19924;-78
2021/06/23 03:07:12;;;;;;;;;;;;;;;5.65;100.00;99770.94;5112250;27;19953;-78
2021/06/23 03:09:45;;;;;;;;;;;;;;;5.59;100.00;99762.94;5115366;28;19969;-78
2021/06/23 03:12:32;;;;;;;;;;;;;;;5.80;100.00;99762.44;5131960;27;20026;-78
2021/06/23 03:15:29;;;;;;;;;;;;;;;6.38;100.00;99771.94;5089992;28;20375;-78
2021/06/23 03:18:06;;;;;;;;;;;;;;;6.87;100.00;99769.72;5089818;28;20009;-78
2021/06/23 03:20:35;;;;;;;;;;;;;;;7.30;100.00;99770.88;5090230;28;20039;-78
2021/06/23 03:23:02;;;;;;;;;;;;;;;7.53;100.00;99773.47;5089971;28;19924;-78
2021/06/23 03:25:29;;;;;;;;;;;;;;;7.80;100.00;99772.06;5073288;28;19924;-78
2021/06/23 03:27:58;;;;;;;;;;;;;;;7.88;100.00;99770.88;5089937;28;19928;-78
2021/06/23 03:30:27;;;;;;;;;;;;;;;8.11;100.00;99775.00;5090028;28;20020;-78
2021/06/23 03:32:55;;;;;;;;;;;;;;;8.26;100.00;99771.13;5089856;28;19974;-77
2021/06/23 03:35:23;;;;;;;;;;;;;;;8.31;100.00;99786.66;5089929;28;19924;-78
2021/06/23 03:37:51;;;;;;;;;;;;;;;8.30;100.00;99774.72;5090111;28;19928;-78
2021/06/23 03:40:19;;;;;;;;;;;;;;;8.26;100.00;99776.69;5089932;28;20009;-78
2021/06/23 03:42:47;;;;;;;;;;;;;;;8.37;100.00;99771.19;5078415;28;19936;-77
2021/06/23 03:45:15;;;;;;;;;;;;;;;8.50;100.00;99762.06;5069308;28;19932;-78
2021/06/23 03:47:42;;;;;;;;;;;;;;;8.34;100.00;99772.78;5069175;28;20302;-78
2021/06/23 03:50:13;;;;;;;;;;;;;;;8.22;100.00;99770.34;5069735;28;19925;-78
2021/06/23 03:52:43;;;;;;;;;;;;;;;8.14;100.00;99768.66;5104831;27;19923;-78
2021/06/23 03:55:19;;;;;;;;;;;;;;;8.04;100.00;99765.81;5153846;27;19958;-78
2021/06/23 03:57:50;;;;;;;;;;;;;;;8.04;100.00;99774.94;5136088;27;20059;-78
2021/06/23 04:00:18;;;;;;;;;;;;;;;8.08;100.00;99763.84;5138216;27;19927;-78
2021/06/23 04:02:45;;;;;;;;;;;;;;;7.95;100.00;99777.28;5157569;27;19932;-78
2021/06/23 04:05:15;;;;;;;;;;;;;;;7.89;100.00;99772.50;5123125;27;19923;-78
2021/06/23 04:07:44;;;;;;;;;;;;;;;7.82;100.00;99766.88;5139258;27;20289;-78
2021/06/23 04:10:12;;;;;;;;;;;;;;;8.14;100.00;99767.84;5157554;27;20043;-78
2021/06/23 04:12:39;;;;;;;;;;;;;;;8.28;100.00;99779.91;5157678;27;19927;-78
2021/06/23 04:15:09;;;;;;;;;;;;;;;8.47;100.00;99776.78;5157626;27;20301;-78
2021/06/23 04:17:39;;;;;;;;;;;;;;;8.59;100.00;99773.66;5138746;27;19930;-78
2021/06/23 04:20:14;;;;;;;;;;;;;;;8.42;100.00;99777.16;5140256;27;19946;-78
2021/06/23 04:22:54;;;;;;;;;;;;;;;8.45;100.00;99773.59;5139131;27;19922;-78
2021/06/23 04:25:21;;;;;;;;;;;;;;;8.20;100.00;99783.00;5157261;27;19927;-78
2021/06/23 04:27:48;;;;;;;;;;;;;;;8.63;100.00;99779.22;5138894;27;19923;-78
2021/06/23 04:30:19;;;;;;;;;;;;;;;8.34;100.00;99788.66;5138559;27;20372;-78
2021/06/23 04:32:46;;;;;;;;;;;;;;;8.04;100.00;99785.31;5157125;27;20451;-78
2021/06/23 04:35:32;;;;;;;;;;;;;;;7.77;100.00;99793.06;5138664;27;19934;-78
2021/06/23 04:37:59;;;;;;;;;;;;;;;7.79;100.00;99787.94;5157134;27;19923;-78
2021/06/23 04:40:27;;;;;;;;;;;;;;;7.86;100.00;99785.19;5156918;27;20301;-78
2021/06/23 04:42:58;;;;;;;;;;;;;;;7.67;100.00;99788.25;5138629;27;20021;-78
2021/06/23 04:45:26;;;;;;;;;;;;;;;7.81;100.00;99788.34;5156581;27;20015;-78
2021/06/23 04:47:57;;;;;;;;;;;;;;;7.80;100.00;99789.53;5138653;27;20390;-78
2021/06/23 04:50:25;;;;;;;;;;;;;;;7.97;100.00;99788.84;5138520;27;20373;-78
2021/06/23 04:52:56;;;;;;;;;;;;;;;8.01;100.00;99791.66;5155805;27;20413;-78
2021/06/23 04:55:24;;;;;;;;;;;;;;;8.05;100.00;99790.50;5138322;27;20389;-78
2021/06/23 04:58:06;;;;;;;;;;;;;;;8.11;100.00;99790.91;5156606;27;19923;-78
2021/06/23 05:00:33;;;;;;;;;;;;;;;8.18;100.00;99797.31;5138305;27;20374;-78
2021/06/23 05:03:02;;;;;;;;;;;;;;;8.26;100.00;99801.75;5156562;27;20353;-78
2021/06/23 05:05:31;;;;;;;;;;;;;;;8.38;100.00;99801.41;5138313;27;19924;-78
2021/06/23 05:07:58;;;;;;;;;;;;;;;8.56;100.00;99802.28;5138008;27;20454;-78
2021/06/23 05:10:25;;;;;;;;;;;;;;;8.74;100.00;99797.56;5156427;27;20382;-78
2021/06/23 05:12:53;;;;;;;;;;;;;;;9.15;100.00;99793.28;5138010;27;19950;-78
2021/06/23 05:15:20;;;;;;;;;;;;;;;9.55;100.00;99799.66;5137966;27;19929;-78
2021/06/23 05:17:47;;;;;;;;;;;;;;;9.76;100.00;99796.84;5156092;27;20309;-78
2021/06/23 05:20:14;;;;;;;;;;;;;;;9.92;100.00;99808.41;5137951;27;20007;-78
2021/06/23 05:22:42;;;;;;;;;;;;;;;9.98;100.00;99813.16;5137864;27;20360;-78
2021/06/23 05:25:09;;;;;;;;;;;;;;;10.12;100.00;99815.16;5155879;27;19924;-78
2021/06/23 05:27:36;;;;;;;;;;;;;;;10.19;100.00;99820.75;5156387;27;20266;-77
2021/06/23 05:30:04;;;;;;;;;;;;;;;10.31;100.00;99825.91;5156215;27;20520;-78
2021/06/23 05:32:32;;;;;;;;;;;;;;;10.37;100.00;99827.09;5156172;27;19926;-78
2021/06/23 05:34:59;;;;;;;;;;;;;;;10.35;100.00;99830.28;5137547;27;19927;-78
2021/06/23 05:37:26;;;;;;;;;;;;;;;10.42;100.00;99821.09;5137946;27;19999;-78
2021/06/23 05:39:53;;;;;;;;;;;;;;;10.65;100.00;99832.56;5155918;27;19923;-78
2021/06/23 05:42:21;;;;;;;;;;;;;;;10.92;100.00;99844.81;5109093;27;20393;-78
2021/06/23 05:44:48;;;;;;;;;;;;;;;11.33;100.00;99839.41;5155632;27;19927;-78
2021/06/23 05:47:15;;;;;;;;;;;;;;;12.02;100.00;99846.47;5155606;27;19975;-78
2021/06/23 05:49:43;;;;;;;;;;;;;;;12.78;100.00;99841.19;5155555;27;20370;-78
2021/06/23 05:52:10;;;;;;;;;;;;;;;13.55;100.00;99841.34;5155661;27;20298;-78
2021/06/23 05:54:37;;;;;;;;;;;;;;;15.37;100.00;99834.19;5155408;27;19923;-78
2021/06/23 05:57:04;;;;;;;;;;;;;;;16.39;100.00;99820.38;5136964;27;19923;-78
2021/06/23 05:59:32;;;;;;;;;;;;;;;15.77;100.00;99813.94;5155439;27;19927;-78
2021/06/23 06:01:59;;;;;;;;;;;;;;;15.54;100.00;99794.38;5155920;27;20017;-78
2021/06/23 06:04:26;;;;;;;;;;;;;;;14.35;100.00;99785.75;5155766;27;20145;-78
2021/06/23 06:06:53;;;;;;;;;;;;;;;13.57;100.00;99785.56;5155421;27;19923;-78
2021/06/23 06:09:20;;;;;;;;;;;;;;;13.42;100.00;99776.56;5140847;27;19930;-78
2021/06/23 06:11:48;;;;;;;;;;;;;;;13.04;100.00;99779.97;5155013;27;19923;-78
2021/06/23 06:14:15;;;;;;;;;;;;;;;12.78;100.00;99778.72;5155177;27;20398;-78
2021/06/23 06:16:42;;;;;;;;;;;;;;;12.51;100.00;99775.84;5155020;27;19923;-78
2021/06/23 06:19:09;;;;;;;;;;;;;;;12.22;100.00;99779.41;5155043;27;20389;-78
2021/06/23 06:21:36;;;;;;;;;;;;;;;12.23;100.00;99781.00;5154190;27;19923;-78
2021/06/23 06:24:03;;;;;;;;;;;;;;;12.44;100.00;99775.13;5154981;27;19923;-78
2021/06/23 06:26:30;;;;;;;;;;;;;;;12.66;100.00;99777.25;5136125;27;20335;-78
2021/06/23 06:28:57;;;;;;;;;;;;;;;12.88;100.00;99771.34;5154750;27;19922;-78
2021/06/23 06:31:25;;;;;;;;;;;;;;;12.74;100.00;99773.16;5154641;27;19934;-78
2021/06/23 06:33:52;;;;;;;;;;;;;;;12.69;100.00;99776.41;5154921;27;19923;-78
2021/06/23 06:36:20;;;;;;;;;;;;;;;13.39;100.00;99773.84;5155023;27;20356;-78
2021/06/23 06:38:47;;;;;;;;;;;;;;;14.36;100.00;99767.66;5154537;27;19923;-78
2021/06/23 06:41:14;;;;;;;;;;;;;;;14.53;100.00;99763.69;5154304;27;19923;-78
2021/06/23 06:43:42;;;;;;;;;;;;;;;14.28;100.00;99761.38;5136298;27;19943;-78
2021/06/23 06:46:09;;;;;;;;;;;;;;;14.01;100.00;99765.53;5154623;27;19927;-78
2021/06/23 06:48:37;;;;;;;;;;;;;;;13.77;100.00;99769.53;5154490;27;19924;-78
2021/06/23 06:51:04;;;;;;;;;;;;;;;14.90;100.00;99766.13;5154569;27;20332;-78
2021/06/23 06:53:31;;;;;;;;;;;;;;;16.61;100.00;99762.13;5135897;27;19955;-78
2021/06/23 06:55:59;;;;;;;;;;;;;;;18.29;100.00;99759.44;5154122;27;20335;-78
2021/06/23 06:58:26;;;;;;;;;;;;;;;18.57;100.00;99764.06;5136039;27;19988;-78
2021/06/23 07:00:53;;;;;;;;;;;;;;;18.60;100.00;99756.72;5154645;27;19988;-77
2021/06/23 07:03:20;;;;;;;;;;;;;;;19.20;100.00;99738.97;5136016;27;19972;-78
2021/06/23 07:05:47;;;;;;;;;;;;;;;19.72;100.00;99740.09;5154494;27;19927;-78
2021/06/23 07:08:14;;;;;;;;;;;;;;;19.38;100.00;99736.22;5135743;27;19968;-77
2021/06/23 07:10:41;;;;;;;;;;;;;;;19.66;100.00;99742.75;5153990;27;20010;-78
2021/06/23 07:13:08;;;;;;;;;;;;;;;19.94;100.00;99735.06;5135640;27;19931;-78
2021/06/23 07:15:35;;;;;;;;;;;;;;;20.35;100.00;99743.00;5135712;27;20030;-78
2021/06/23 07:18:03;;;;;;;;;;;;;;;21.27;100.00;99731.78;5135892;27;19953;-78
2021/06/23 07:20:30;;;;;;;;;;;;;;;21.95;100.00;99727.94;5135765;27;19984;-78
2021/06/23 07:22:57;;;;;;;;;;;;;;;21.62;100.00;99721.50;5135351;27;19930;-78
2021/06/23 07:25:25;;;;;;;;;;;;;;;20.50;100.00;99726.91;5153829;27;19923;-78
2021/06/23 07:27:55;;;;;;;;;;;;;;;20.11;100.00;99733.53;5154192;27;19945;-78
2021/06/23 07:30:22;;;;;;;;;;;;;;;21.21;100.00;99730.84;5154071;27;19975;-78
2021/06/23 07:33:07;;;;;;;;;;;;;;;21.95;100.00;99727.13;5154301;27;20014;-78
2021/06/23 07:38:20;;;;;;;;;;;;;;;23.87;100.00;99709.06;5139929;27;19930;-78
2021/06/23 07:40:54;;;;;;;;;;;;;;;23.75;100.00;99718.78;5158362;27;19966;-78
2021/06/23 07:43:22;;;;;;;;;;;;;;;22.99;100.00;99725.59;5157922;27;20386;-78
2021/06/23 07:45:52;;;;;;;;;;;;;;;22.41;100.00;99717.78;5158313;27;19934;-78
2021/06/23 07:48:20;;;;;;;;;;;;;;;22.20;100.00;99715.25;5158187;27;19934;-78
2021/06/23 07:50:52;;;;;;;;;;;;;;;22.62;100.00;99721.53;5157644;27;19923;-78
2021/06/23 07:53:29;;;;;;;;;;;;;;;22.04;100.00;99719.34;5122135;27;19972;-78
2021/06/23 07:56:07;;;;;;;;;;;;;;;21.73;100.00;99718.91;5157811;27;19927;-78
2021/06/23 08:09:37;;;;;;;;;;;;;;;19.89;100.00;99710.19;5138899;27;19946;-77
2021/06/23 08:15:08;;;;;;;;;;;;;;;19.84;100.00;99707.97;5053183;28;19925;-77
2021/06/23 08:17:35;;;;;;;;;;;;;;;19.19;100.00;99725.25;5065535;28;19971;-78
2021/06/23 08:20:03;;;;;;;;;;;;;;;18.55;100.00;99717.69;5058956;28;19972;-77
2021/06/23 08:22:31;;;;;;;;;;;;;;;17.52;100.00;99716.91;5045523;28;19932;-78
2021/06/23 08:24:58;;;;;;;;;;;;;;;17.83;100.00;99710.16;5066847;28;20019;-77
2021/06/23 08:27:25;;;;;;;;;;;;;;;19.00;100.00;99713.06;5053088;28;20292;-77
2021/06/23 08:29:52;;;;;;;;;;;;;;;19.65;100.00;99702.28;5066955;28;19925;-77
2021/06/23 08:32:19;;;;;;;;;;;;;;;18.95;100.00;99719.31;5060715;28;19928;-77
2021/06/23 08:34:47;;;;;;;;;;;;;;;19.72;100.00;99721.00;5042406;28;19935;-78
2021/06/23 08:37:14;;;;;;;;;;;;;;;19.51;100.00;99719.88;5041773;28;20005;-77
2021/06/23 08:39:41;;;;;;;;;;;;;;;20.35;100.00;99717.47;5060524;28;19936;-78
2021/06/23 08:42:09;;;;;;;;;;;;;;;20.59;100.00;99707.81;5066662;28;20042;-77
2021/06/23 08:44:36;;;;;;;;;;;;;;;19.83;100.00;99701.50;5062872;28;19924;-77
2021/06/23 08:47:04;;;;;;;;;;;;;;;19.56;100.00;99713.59;5042128;28;19962;-78
2021/06/23 08:49:31;;;;;;;;;;;;;;;19.53;100.00;99708.88;5126902;27;19923;-77
2021/06/23 08:51:58;;;;;;;;;;;;;;;20.44;100.00;99717.47;5156556;27;19966;-78
2021/06/23 08:54:26;;;;;;;;;;;;;;;20.53;100.00;99701.22;5138168;27;20016;-77
2021/06/23 08:56:54;;;;;;;;;;;;;;;20.42;100.00;99705.78;5156782;27;20362;-78
2021/06/23 08:59:21;;;;;;;;;;;;;;;20.36;100.00;99699.97;5156395;27;19931;-78
2021/06/23 09:01:48;;;;;;;;;;;;;;;20.27;100.00;99702.00;5138265;27;20386;-77
2021/06/23 09:04:17;;;;;;;;;;;;;;;19.57;100.00;99706.66;5137938;27;20293;-77
2021/06/23 09:06:45;;;;;;;;;;;;;;;19.77;100.00;99705.44;5156452;27;19929;-78
2021/06/23 09:09:27;;;;;;;;;;;;;;;19.73;100.00;99699.13;5156555;27;19923;-78
2021/06/23 09:11:56;;;;;;;;;;;;;;;18.78;100.00;99706.63;5088318;27;19983;-73
2021/06/23 09:14:24;;;;;;;;;;;;;;;18.03;100.00;99707.03;5150148;27;19923;-77
2021/06/23 09:17:09;;;;;;;;;;;;;;;18.20;100.00;99705.63;5156463;27;20296;-77
2021/06/23 09:19:57;;;;;;;;;;;;;;;17.55;100.00;99705.47;5155938;27;20018;-77
2021/06/23 09:22:45;;;;;;;;;;;;;;;17.31;100.00;99718.38;5156249;27;19956;-77
2021/06/23 09:25:13;;;;;;;;;;;;;;;17.49;100.00;99703.69;5155827;27;19923;-77
2021/06/23 09:27:47;;;;;;;;;;;;;;;17.71;100.00;99713.03;5137890;27;20470;-78
2021/06/23 09:30:27;;;;;;;;;;;;;;;17.88;100.00;99700.31;5156005;27;19968;-77
2021/06/23 09:33:14;;;;;;;;;;;;;;;18.10;100.00;99706.00;5156201;27;20432;-77
2021/06/23 09:35:44;;;;;;;;;;;;;;;18.60;100.00;99706.53;5137476;27;20011;-78
2021/06/23 09:38:42;;;;;;;;;;;;;;;19.06;100.00;99699.88;5155818;27;19930;-78
2021/06/23 09:41:25;;;;;;;;;;;;;;;19.02;100.00;99698.44;5155650;27;20068;-77
2021/06/23 09:44:05;;;;;;;;;;;;;;;18.77;100.00;99696.56;5155636;27;19979;-77
2021/06/23 09:46:34;;;;;;;;;;;;;;;18.49;100.00;99697.69;5137781;27;19923;-77
2021/06/23 09:49:04;;;;;;;;;;;;;;;18.87;100.00;99703.09;5137029;27;19923;-77
2021/06/23 09:51:39;;;;;;;;;;;;;;;18.79;100.00;99691.25;5155825;27;19930;-77
2021/06/23 09:54:07;;;;;;;;;;;;;;;18.98;100.00;99689.28;5120279;27;19923;-77
2021/06/23 09:56:46;;;;;;;;;;;;;;;18.83;100.00;99680.56;5154728;27;19923;-77
2021/06/23 09:59:48;;;;;;;;;;;;;;;18.68;100.00;99685.22;5155374;27;19930;-77
2021/06/23 10:02:32;;;;;;;;;;;;;;;18.41;100.00;99687.06;5141205;27;19930;-77
2021/06/23 10:05:01;;;;;;;;;;;;;;;18.11;100.00;99691.41;5127605;27;19927;-77
2021/06/23 10:07:37;;;;;;;;;;;;;;;18.31;100.00;99689.00;5136978;27;20003;-78
2021/06/23 10:10:05;;;;;;;;;;;;;;;18.37;100.00;99692.91;5127440;27;19967;-77
2021/06/23 10:12:32;;;;;;;;;;;;;;;18.59;100.00;99682.31;5155198;27;20289;-77
2021/06/23 10:14:59;;;;;;;;;;;;;;;18.66;100.00;99687.69;5136716;27;19983;-77
2021/06/23 10:17:26;;;;;;;;;;;;;;;18.65;100.00;99680.47;5155178;27;19974;-77
2021/06/23 10:19:54;;;;;;;;;;;;;;;18.73;100.00;99695.94;5154702;27;20078;-78
2021/06/23 10:22:21;;;;;;;;;;;;;;;18.76;100.00;99697.84;5155212;27;19923;-77
2021/06/23 10:24:53;;;;;;;;;;;;;;;18.20;100.00;99697.13;5154708;27;19968;-77
2021/06/23 10:27:22;;;;;;;;;;;;;;;18.06;100.00;99691.97;5136411;27;20357;-77
2021/06/23 10:29:53;;;;;;;;;;;;;;;17.64;100.00;99693.50;5155017;27;19930;-77
2021/06/23 10:32:22;;;;;;;;;;;;;;;17.86;100.00;99697.13;5154998;27;19931;-78
2021/06/23 10:34:50;;;;;;;;;;;;;;;18.15;100.00;99697.72;5154418;27;19933;-77
2021/06/23 10:37:19;;;;;;;;;;;;;;;18.73;100.00;99695.13;5154972;27;19923;-77
2021/06/23 10:39:48;;;;;;;;;;;;;;;19.06;100.00;99691.38;5136726;27;19930;-78
2021/06/23 10:42:15;;;;;;;;;;;;;;;19.08;100.00;99686.03;5154411;27;19981;-77
2021/06/23 10:44:47;;;;;;;;;;;;;;;19.05;100.00;99686.94;5136355;27;19945;-77
2021/06/23 10:47:28;;;;;;;;;;;;;;;19.16;100.00;99678.81;5154326;27;19923;-77
2021/06/23 10:49:55;;;;;;;;;;;;;;;19.26;100.00;99686.09;5154633;27;19923;-77
2021/06/23 10:52:22;;;;;;;;;;;;;;;19.42;100.00;99677.34;5154238;27;20374;-78
2021/06/23 10:54:54;;;;;;;;;;;;;;;19.32;100.00;99683.47;5154546;27;19927;-77
2021/06/23 10:57:33;;;;;;;;;;;;;;;19.83;100.00;99690.16;5136136;27;19946;-78
2021/06/23 11:00:02;;;;;;;;;;;;;;;19.85;100.00;99689.69;5128797;27;19923;-77
2021/06/23 11:02:31;;;;;;;;;;;;;;;19.90;100.00;99683.41;5154078;27;19923;-78
2021/06/23 11:05:02;;;;;;;;;;;;;;;19.65;100.00;99685.28;5154323;27;19923;-77
2021/06/23 11:07:43;;;;;;;;;;;;;;;19.53;100.00;99688.22;5135918;27;20385;-77
2021/06/23 11:10:12;;;;;;;;;;;;;;;19.38;100.00;99682.38;5102834;27;19923;-78
2021/06/23 11:12:42;;;;;;;;;;;;;;;19.26;100.00;99696.63;5129550;27;20026;-77
2021/06/23 11:15:18;;;;;;;;;;;;;;;19.11;100.00;99696.44;5126199;27;19927;-77
2021/06/23 11:17:46;;;;;;;;;;;;;;;18.50;100.00;99695.63;5154249;27;19923;-77
2021/06/23 11:20:19;;;;;;;;;;;;;;;18.56;100.00;99703.06;5118818;27;20058;-78
2021/06/23 11:22:53;;;;;;;;;;;;;;;18.92;100.00;99699.63;5154327;27;20271;-77
2021/06/23 11:25:20;;;;;;;;;;;;;;;19.30;100.00;99689.59;5125584;27;19934;-78
2021/06/23 11:28:06;;;;;;;;;;;;;;;19.34;100.00;99687.41;5154260;27;19923;-77
2021/06/23 11:30:37;;;;;;;;;;;;;;;19.27;100.00;99690.53;5127289;27;19929;-78
2021/06/23 11:33:30;;;;;;;;;;;;;;;18.75;100.00;99706.78;5154238;27;19967;-78
2021/06/23 11:36:02;;;;;;;;;;;;;;;18.82;100.00;99701.66;5101581;27;20285;-78
2021/06/23 11:38:30;;;;;;;;;;;;;;;18.86;100.00;99707.94;5135667;27;19967;-77
2021/06/23 11:40:57;;;;;;;;;;;;;;;18.73;100.00;99703.63;5135648;27;20378;-77
2021/06/23 11:43:25;;;;;;;;;;;;;;;18.32;100.00;99701.94;5153566;27;20014;-77
2021/06/23 11:45:54;;;;;;;;;;;;;;;18.18;100.00;99699.63;5118456;27;19923;-77
2021/06/23 11:48:26;;;;;;;;;;;;;;;18.42;100.00;99705.66;5153989;27;19930;-77
2021/06/23 11:50:53;;;;;;;;;;;;;;;18.29;100.00;99697.19;5125640;27;19923;-77
2021/06/23 11:53:21;;;;;;;;;;;;;;;18.32;100.00;99696.28;5153812;27;19930;-77
2021/06/23 11:55:50;;;;;;;;;;;;;;;18.38;100.00;99699.31;5153773;27;19923;-77
2021/06/23 11:58:17;;;;;;;;;;;;;;;18.62;100.00;99703.25;5135428;27;19946;-77
2021/06/23 12:00:45;;;;;;;;;;;;;;;18.75;100.00;99684.16;5153606;27;19923;-78
2021/06/23 12:03:15;;;;;;;;;;;;;;;18.99;100.00;99685.22;5153816;27;19934;-77
2021/06/23 12:05:42;;;;;;;;;;;;;;;19.34;100.00;99681.72;5135500;27;19923;-78
2021/06/23 12:08:10;;;;;;;;;;;;;;;19.61;100.00;99689.53;5153597;27;20397;-78
2021/06/23 12:10:38;;;;;;;;;;;;;;;19.53;100.00;99679.72;5153735;27;20366;-77
2021/06/23 12:13:06;;;;;;;;;;;;;;;19.32;100.00;99675.75;5153449;27;19923;-77
2021/06/23 12:15:33;;;;;;;;;;;;;;;19.44;100.00;99683.34;5153549;27;20025;-78
2021/06/23 12:18:02;;;;;;;;;;;;;;;18.89;100.00;99689.22;5153744;27;19927;-77
2021/06/23 12:20:30;;;;;;;;;;;;;;;18.86;100.00;99696.63;5136804;27;19930;-78
2021/06/23 12:23:01;;;;;;;;;;;;;;;19.01;100.00;99689.13;5157135;27;19923;-78
2021/06/23 12:25:30;;;;;;;;;;;;;;;19.21;100.00;99689.53;5138921;27;19923;-77
2021/06/23 12:27:58;;;;;;;;;;;;;;;19.35;100.00;99688.19;5139237;27;19924;-78
2021/06/23 12:30:27;;;;;;;;;;;;;;;19.58;100.00;99682.72;5128277;27;19958;-78
2021/06/23 12:32:55;;;;;;;;;;;;;;;19.87;100.00;99684.34;5157360;27;20543;-78
2021/06/23 12:35:23;;;;;;;;;;;;;;;19.77;100.00;99672.19;5157055;27;19923;-78
2021/06/23 12:37:50;;;;;;;;;;;;;;;19.84;100.00;99679.63;5157248;27;19933;-77
2021/06/23 12:40:18;;;;;;;;;;;;;;;20.13;100.00;99677.13;5138577;27;20388;-78
2021/06/23 12:42:45;;;;;;;;;;;;;;;20.03;100.00;99672.69;5156958;27;19923;-78
2021/06/23 12:45:12;;;;;;;;;;;;;;;19.72;100.00;99677.72;5156646;27;19923;-77
2021/06/23 12:47:40;;;;;;;;;;;;;;;19.59;100.00;99664.47;5138979;27;20089;-78
2021/06/23 12:50:08;;;;;;;;;;;;;;;19.34;100.00;99681.72;5156797;27;19977;-78
2021/06/23 12:52:35;;;;;;;;;;;;;;;19.15;100.00;99680.06;5156759;27;20021;-78
2021/06/23 12:55:03;;;;;;;;;;;;;;;18.66;100.00;99684.88;5156848;27;20009;-77
2021/06/23 12:57:30;;;;;;;;;;;;;;;18.91;100.00;99679.03;5156328;27;20022;-78
2021/06/23 12:59:58;;;;;;;;;;;;;;;18.88;100.00;99685.63;5121415;27;19968;-78
2021/06/23 13:02:26;;;;;;;;;;;;;;;18.80;100.00;99690.00;5138395;27;19923;-78
2021/06/23 13:04:53;;;;;;;;;;;;;;;19.00;100.00;99681.91;5137916;27;19923;-77
2021/06/23 13:07:21;;;;;;;;;;;;;;;19.11;100.00;99685.09;5156596;27;19931;-77
2021/06/23 13:09:51;;;;;;;;;;;;;;;19.12;100.00;99686.66;5138138;27;19927;-78
2021/06/23 13:12:18;;;;;;;;;;;;;;;18.98;100.00;99686.44;5156210;27;20442;-78
2021/06/23 13:14:45;;;;;;;;;;;;;;;19.01;100.00;99680.63;5137832;27;20374;-78